Pagrindinis puslapis
METAR-TAF:

METAR-TAF

Oro uostai :

Ponapė, Mikronezija

platuma: 06-59N, ilguma: 158-12E, Aukštis: 2 m

Dabartinis oras

Ataskaita buvo paskelbta 2 valandos ir 41 minutes, ne 03:50 UTC
Vėjas 12 kt iš Rytų/Šiaurės Rytų
Temperatūra 32°C
Drėgmė 71%
Slėgis 1007 hPa
Matomumas: 24.1 km
Išsisklaidę debesys ne aukštis 1800 ft, aukštai iškilę kamuoliniai debesys.
Su prošvaistėmis ne aukštis 13000 ft
Apsiniaukę ne aukštis 30000 ft

METAR: PTPN 120350Z 07012KT 15SM SCT018TCU BKN130 OVC300 32/26 A2974 RMK TCU S LAST

Laikas: 17:31 (06:31 UTC)

Prognozė

Ataskaita buvo paskelbta 6 valandos ir 59 minutes, ne 23:32 UTC
Prognozė galioja nuo 12 metu 00 UTC su 12 metu 24 UTC
Vėjas 15 kt iš Rytų/Šiaurės Rytų
Matomumas: 10 km
Išsisklaidę debesys ne aukštis 1800 ft
Liūtis kaimynystėje

TAF: PTPN 112332Z 1200/1224 07015KT P6SM VCSH SCT018

Orai ataskaitas ir orų prognozės (METAR, TAF).

turimą stotys yra geltonos ir raudonos taškus žemėlapyje.

Perkelti pele per norėdami pamatyti stoties vardą.

Tada spustelėkite, norėdami matyti oro stebėjimo ir prognozės.

Norėdami pakeisti žemėlapį: spustelėkite ant žalios mygtukų su juodo kryžiaus žemyn,; žalią mygtuką su brūkšneliu, jei norite nutolinti; arba žalių rodyklių gretimoms žemėlapius.


METAR-TAF: